Metar z pełnej godziny Komunikat METAR ze strony awiacja.imgw.pl Metar G00 EPGD METAR EPGD 261800Z 28014KT 9999 FEW011 BKN025 M00/M02 Q1004 RESHSN R11/290095 =